sensor_id;sensor_type;location;lat;lon;timestamp;pressure;altitude;pressure_sealevel;temperature;humidity
68822;BME280;55834;50.870;4.606;2023-03-26T00:01:08;100115.09;;;7.77;56.07
68822;BME280;55834;50.870;4.606;2023-03-26T00:03:35;100112.22;;;7.53;56.44
68822;BME280;55834;50.870;4.606;2023-03-26T00:06:06;100110.91;;;8.02;55.58
68822;BME280;55834;50.870;4.606;2023-03-26T00:08:33;100106.81;;;7.92;55.93
68822;BME280;55834;50.870;4.606;2023-03-26T00:10:59;100093.84;;;8.48;55.54
68822;BME280;55834;50.870;4.606;2023-03-26T00:13:25;100096.47;;;8.48;54.90
68822;BME280;55834;50.870;4.606;2023-03-26T00:15:50;100101.31;;;8.32;54.60
68822;BME280;55834;50.870;4.606;2023-03-26T00:18:17;100099.53;;;8.33;55.41
68822;BME280;55834;50.870;4.606;2023-03-26T00:20:44;100094.09;;;8.69;55.47
68822;BME280;55834;50.870;4.606;2023-03-26T00:23:09;100087.19;;;8.65;55.27
68822;BME280;55834;50.870;4.606;2023-03-26T00:25:37;100085.75;;;8.54;55.07
68822;BME280;55834;50.870;4.606;2023-03-26T00:28:05;100083.84;;;8.88;55.29
68822;BME280;55834;50.870;4.606;2023-03-26T00:30:32;100083.91;;;8.86;55.65
68822;BME280;55834;50.870;4.606;2023-03-26T00:32:57;100079.53;;;8.85;55.52
68822;BME280;55834;50.870;4.606;2023-03-26T00:35:23;100074.78;;;8.96;55.13
68822;BME280;55834;50.870;4.606;2023-03-26T00:37:48;100072.53;;;9.12;55.03
68822;BME280;55834;50.870;4.606;2023-03-26T00:40:17;100060.84;;;9.19;54.83
68822;BME280;55834;50.870;4.606;2023-03-26T00:42:43;100060.31;;;9.10;55.47
68822;BME280;55834;50.870;4.606;2023-03-26T00:45:09;100057.06;;;9.01;55.36
68822;BME280;55834;50.870;4.606;2023-03-26T00:47:34;100055.84;;;8.85;55.24
68822;BME280;55834;50.870;4.606;2023-03-26T00:50:00;100059.09;;;8.93;56.19
68822;BME280;55834;50.870;4.606;2023-03-26T00:52:25;100057.47;;;8.89;56.07
68822;BME280;55834;50.870;4.606;2023-03-26T00:54:53;100063.84;;;8.82;56.07
68822;BME280;55834;50.870;4.606;2023-03-26T00:57:19;100050.88;;;8.76;56.74
68822;BME280;55834;50.870;4.606;2023-03-26T00:59:46;100054.84;;;8.89;55.92
68822;BME280;55834;50.870;4.606;2023-03-26T01:02:14;100048.41;;;8.98;56.00
68822;BME280;55834;50.870;4.606;2023-03-26T01:04:44;100041.50;;;8.94;55.04
68822;BME280;55834;50.870;4.606;2023-03-26T01:07:16;100038.47;;;8.79;55.86
68822;BME280;55834;50.870;4.606;2023-03-26T01:09:47;100035.16;;;8.74;56.38
68822;BME280;55834;50.870;4.606;2023-03-26T01:12:21;100015.34;;;8.89;56.86
68822;BME280;55834;50.870;4.606;2023-03-26T01:14:48;100018.50;;;9.00;55.76
68822;BME280;55834;50.870;4.606;2023-03-26T01:17:14;100006.88;;;9.06;55.35
68822;BME280;55834;50.870;4.606;2023-03-26T01:19:55;99993.78;;;9.04;54.99
68822;BME280;55834;50.870;4.606;2023-03-26T01:22:26;100000.72;;;8.80;55.69
68822;BME280;55834;50.870;4.606;2023-03-26T01:24:52;99999.78;;;8.83;56.20
68822;BME280;55834;50.870;4.606;2023-03-26T01:35:55;99969.25;;;9.02;55.84
68822;BME280;55834;50.870;4.606;2023-03-26T01:38:47;99969.97;;;9.08;55.50
68822;BME280;55834;50.870;4.606;2023-03-26T01:41:29;99969.16;;;9.05;55.06
68822;BME280;55834;50.870;4.606;2023-03-26T01:44:02;99969.16;;;9.05;55.50
68822;BME280;55834;50.870;4.606;2023-03-26T01:46:31;99957.84;;;9.03;55.42
68822;BME280;55834;50.870;4.606;2023-03-26T01:49:02;99955.97;;;9.05;55.53
68822;BME280;55834;50.870;4.606;2023-03-26T01:51:31;99951.84;;;8.98;55.34
68822;BME280;55834;50.870;4.606;2023-03-26T01:53:57;99940.84;;;8.87;55.89
68822;BME280;55834;50.870;4.606;2023-03-26T01:56:34;99940.00;;;8.85;56.28
68822;BME280;55834;50.870;4.606;2023-03-26T02:02:15;99924.78;;;8.95;56.31
68822;BME280;55834;50.870;4.606;2023-03-26T02:04:56;99915.88;;;8.97;56.00
68822;BME280;55834;50.870;4.606;2023-03-26T02:07:30;99909.84;;;8.95;55.65
68822;BME280;55834;50.870;4.606;2023-03-26T02:10:15;99902.69;;;8.99;55.38
68822;BME280;55834;50.870;4.606;2023-03-26T02:12:42;99898.25;;;9.01;55.44
68822;BME280;55834;50.870;4.606;2023-03-26T02:15:09;99896.56;;;8.98;55.06
68822;BME280;55834;50.870;4.606;2023-03-26T02:17:35;99894.03;;;8.95;54.72
68822;BME280;55834;50.870;4.606;2023-03-26T02:20:08;99883.88;;;8.85;55.04
68822;BME280;55834;50.870;4.606;2023-03-26T02:22:35;99881.22;;;8.86;55.33
68822;BME280;55834;50.870;4.606;2023-03-26T02:25:07;99888.63;;;8.75;54.90
68822;BME280;55834;50.870;4.606;2023-03-26T02:27:33;99877.50;;;8.67;55.73
68822;BME280;55834;50.870;4.606;2023-03-26T02:29:59;99876.88;;;8.58;55.84
68822;BME280;55834;50.870;4.606;2023-03-26T02:32:25;99873.28;;;8.61;56.08
68822;BME280;55834;50.870;4.606;2023-03-26T02:34:50;99867.09;;;8.62;55.87
68822;BME280;55834;50.870;4.606;2023-03-26T02:37:15;99862.41;;;8.45;56.34
68822;BME280;55834;50.870;4.606;2023-03-26T02:39:43;99857.13;;;8.47;56.49
68822;BME280;55834;50.870;4.606;2023-03-26T02:42:08;99852.50;;;8.53;56.30
68822;BME280;55834;50.870;4.606;2023-03-26T02:44:36;99848.66;;;8.64;56.50
68822;BME280;55834;50.870;4.606;2023-03-26T02:47:04;99840.47;;;8.71;55.60
68822;BME280;55834;50.870;4.606;2023-03-26T02:49:29;99839.69;;;8.69;55.31
68822;BME280;55834;50.870;4.606;2023-03-26T02:51:55;99830.72;;;8.75;55.98
68822;BME280;55834;50.870;4.606;2023-03-26T02:54:21;99825.22;;;8.81;55.57
68822;BME280;55834;50.870;4.606;2023-03-26T02:56:47;99808.38;;;8.87;55.27
68822;BME280;55834;50.870;4.606;2023-03-26T02:59:12;99797.72;;;8.90;55.49
68822;BME280;55834;50.870;4.606;2023-03-26T03:01:39;99798.91;;;8.81;55.07
68822;BME280;55834;50.870;4.606;2023-03-26T03:04:08;99789.13;;;8.85;54.63
68822;BME280;55834;50.870;4.606;2023-03-26T03:06:34;99789.75;;;8.91;54.95
68822;BME280;55834;50.870;4.606;2023-03-26T03:08:59;99782.81;;;8.89;54.51
68822;BME280;55834;50.870;4.606;2023-03-26T03:11:29;99782.88;;;8.87;54.53
68822;BME280;55834;50.870;4.606;2023-03-26T03:13:54;99770.69;;;8.85;54.71
68822;BME280;55834;50.870;4.606;2023-03-26T03:16:20;99773.19;;;8.89;54.51
68822;BME280;55834;50.870;4.606;2023-03-26T03:18:45;99762.75;;;8.86;54.68
68822;BME280;55834;50.870;4.606;2023-03-26T03:21:19;99756.41;;;8.92;54.71
68822;BME280;55834;50.870;4.606;2023-03-26T03:23:44;99757.19;;;8.94;54.49
68822;BME280;55834;50.870;4.606;2023-03-26T03:26:15;99746.78;;;8.91;54.76
68822;BME280;55834;50.870;4.606;2023-03-26T03:28:41;99735.44;;;8.89;54.45
68822;BME280;55834;50.870;4.606;2023-03-26T03:31:06;99738.00;;;8.92;54.60
68822;BME280;55834;50.870;4.606;2023-03-26T03:33:33;99732.16;;;8.84;54.50
68822;BME280;55834;50.870;4.606;2023-03-26T03:35:59;99718.91;;;8.85;54.58
68822;BME280;55834;50.870;4.606;2023-03-26T03:38:25;99715.38;;;8.86;54.77
68822;BME280;55834;50.870;4.606;2023-03-26T03:40:50;99702.38;;;8.81;54.95
68822;BME280;55834;50.870;4.606;2023-03-26T03:43:17;99699.59;;;8.86;54.64
68822;BME280;55834;50.870;4.606;2023-03-26T03:45:42;99683.72;;;8.88;54.53
68822;BME280;55834;50.870;4.606;2023-03-26T03:48:07;99679.31;;;8.88;54.39
68822;BME280;55834;50.870;4.606;2023-03-26T03:50:33;99673.16;;;8.89;54.27
68822;BME280;55834;50.870;4.606;2023-03-26T03:52:58;99675.78;;;8.89;54.61
68822;BME280;55834;50.870;4.606;2023-03-26T03:55:25;99666.16;;;8.88;54.56
68822;BME280;55834;50.870;4.606;2023-03-26T03:57:52;99662.63;;;8.89;54.40
68822;BME280;55834;50.870;4.606;2023-03-26T04:00:18;99655.63;;;8.88;54.51
68822;BME280;55834;50.870;4.606;2023-03-26T04:02:43;99652.88;;;8.91;54.37
68822;BME280;55834;50.870;4.606;2023-03-26T04:05:11;99644.13;;;8.91;54.25
68822;BME280;55834;50.870;4.606;2023-03-26T04:07:37;99638.81;;;8.92;54.34
68822;BME280;55834;50.870;4.606;2023-03-26T04:10:04;99641.44;;;8.92;54.26
68822;BME280;55834;50.870;4.606;2023-03-26T04:12:30;99637.06;;;8.91;53.99
68822;BME280;55834;50.870;4.606;2023-03-26T04:14:56;99631.81;;;8.91;53.92
68822;BME280;55834;50.870;4.606;2023-03-26T04:17:22;99625.69;;;8.91;54.29
68822;BME280;55834;50.870;4.606;2023-03-26T04:19:48;99628.28;;;8.92;54.14
68822;BME280;55834;50.870;4.606;2023-03-26T04:22:15;99624.84;;;8.90;53.97
68822;BME280;55834;50.870;4.606;2023-03-26T04:24:43;99619.56;;;8.90;54.17
68822;BME280;55834;50.870;4.606;2023-03-26T04:27:12;99615.13;;;8.92;54.13
68822;BME280;55834;50.870;4.606;2023-03-26T04:29:43;99607.22;;;8.92;54.26
68822;BME280;55834;50.870;4.606;2023-03-26T04:32:15;99609.00;;;8.92;54.13
68822;BME280;55834;50.870;4.606;2023-03-26T04:34:44;99604.50;;;8.94;54.50
68822;BME280;55834;50.870;4.606;2023-03-26T04:37:16;99601.88;;;8.94;54.12
68822;BME280;55834;50.870;4.606;2023-03-26T04:39:46;99589.66;;;8.93;54.26
68822;BME280;55834;50.870;4.606;2023-03-26T04:42:11;99584.38;;;8.93;54.07
68822;BME280;55834;50.870;4.606;2023-03-26T04:44:38;99578.19;;;8.94;54.42
68822;BME280;55834;50.870;4.606;2023-03-26T04:47:06;99574.81;;;8.90;54.70
68822;BME280;55834;50.870;4.606;2023-03-26T04:49:31;99570.41;;;8.91;54.41
68822;BME280;55834;50.870;4.606;2023-03-26T04:51:57;99560.94;;;8.87;54.65
68822;BME280;55834;50.870;4.606;2023-03-26T04:54:22;99555.84;;;8.60;54.91
68822;BME280;55834;50.870;4.606;2023-03-26T04:56:58;99552.06;;;8.67;55.53
68822;BME280;55834;50.870;4.606;2023-03-26T04:59:30;99549.41;;;8.67;55.29
68822;BME280;55834;50.870;4.606;2023-03-26T05:01:59;99549.06;;;8.54;56.37
68822;BME280;55834;50.870;4.606;2023-03-26T05:04:25;99543.56;;;8.61;55.83
68822;BME280;55834;50.870;4.606;2023-03-26T05:06:54;99542.03;;;8.55;55.41
68822;BME280;55834;50.870;4.606;2023-03-26T05:09:20;99533.41;;;8.51;56.16
68822;BME280;55834;50.870;4.606;2023-03-26T05:11:46;99530.19;;;8.43;56.20
68822;BME280;55834;50.870;4.606;2023-03-26T05:14:12;99530.19;;;8.43;56.89
68822;BME280;55834;50.870;4.606;2023-03-26T05:16:37;99523.88;;;8.47;56.12
68822;BME280;55834;50.870;4.606;2023-03-26T05:19:03;99529.63;;;8.35;56.25
68822;BME280;55834;50.870;4.606;2023-03-26T05:21:29;99531.81;;;8.24;56.42
68822;BME280;55834;50.870;4.606;2023-03-26T05:23:54;99530.16;;;7.96;57.49
68822;BME280;55834;50.870;4.606;2023-03-26T05:26:20;99525.13;;;8.15;57.70
68822;BME280;55834;50.870;4.606;2023-03-26T05:28:45;99527.16;;;8.30;56.81
68822;BME280;55834;50.870;4.606;2023-03-26T05:31:11;99518.72;;;8.22;57.00
68822;BME280;55834;50.870;4.606;2023-03-26T05:33:36;99522.41;;;7.93;57.13
68822;BME280;55834;50.870;4.606;2023-03-26T05:36:05;99514.78;;;8.10;57.45
68822;BME280;55834;50.870;4.606;2023-03-26T05:38:31;99509.84;;;8.25;58.33
68822;BME280;55834;50.870;4.606;2023-03-26T05:41:02;99505.84;;;8.38;57.30
68822;BME280;55834;50.870;4.606;2023-03-26T05:43:28;99502.47;;;8.56;56.70
68822;BME280;55834;50.870;4.606;2023-03-26T05:45:54;99503.00;;;8.66;56.21
68822;BME280;55834;50.870;4.606;2023-03-26T05:48:20;99489.50;;;8.74;56.21
68822;BME280;55834;50.870;4.606;2023-03-26T05:50:50;99482.28;;;8.79;55.60
68822;BME280;55834;50.870;4.606;2023-03-26T05:53:17;99478.63;;;8.83;55.29
68822;BME280;55834;50.870;4.606;2023-03-26T05:55:46;99481.13;;;8.86;54.89
68822;BME280;55834;50.870;4.606;2023-03-26T05:58:15;99477.63;;;8.86;55.16
68822;BME280;55834;50.870;4.606;2023-03-26T06:00:41;99480.25;;;8.86;54.71
68822;BME280;55834;50.870;4.606;2023-03-26T06:03:09;99477.69;;;8.84;54.53
68822;BME280;55834;50.870;4.606;2023-03-26T06:05:37;99472.44;;;8.62;55.17
68822;BME280;55834;50.870;4.606;2023-03-26T06:08:03;99459.28;;;8.62;55.25
68822;BME280;55834;50.870;4.606;2023-03-26T06:10:29;99467.13;;;8.42;55.78
68822;BME280;55834;50.870;4.606;2023-03-26T06:12:58;99465.16;;;8.47;56.12
68822;BME280;55834;50.870;4.606;2023-03-26T06:15:23;99460.38;;;8.56;56.31
68822;BME280;55834;50.870;4.606;2023-03-26T06:17:48;99447.78;;;8.65;55.86
68822;BME280;55834;50.870;4.606;2023-03-26T06:20:14;99446.75;;;8.69;54.63
68822;BME280;55834;50.870;4.606;2023-03-26T06:22:40;99447.66;;;8.68;55.33
68822;BME280;55834;50.870;4.606;2023-03-26T06:25:06;99433.81;;;8.63;55.34
68822;BME280;55834;50.870;4.606;2023-03-26T06:27:31;99432.06;;;8.63;55.50
68822;BME280;55834;50.870;4.606;2023-03-26T06:29:58;99430.97;;;8.69;55.44
68822;BME280;55834;50.870;4.606;2023-03-26T06:32:23;99424.59;;;8.74;55.25
68822;BME280;55834;50.870;4.606;2023-03-26T06:34:49;99423.00;;;8.70;55.37
68822;BME280;55834;50.870;4.606;2023-03-26T06:37:15;99418.97;;;8.62;55.64
68822;BME280;55834;50.870;4.606;2023-03-26T06:39:40;99414.56;;;8.62;55.62
68822;BME280;55834;50.870;4.606;2023-03-26T06:42:06;99417.81;;;8.69;55.15
68822;BME280;55834;50.870;4.606;2023-03-26T06:44:31;99417.06;;;8.65;55.41
68822;BME280;55834;50.870;4.606;2023-03-26T06:46:56;99406.47;;;8.67;55.01
68822;BME280;55834;50.870;4.606;2023-03-26T06:49:22;99408.41;;;8.63;55.53
68822;BME280;55834;50.870;4.606;2023-03-26T06:51:47;99411.03;;;8.63;55.47
68822;BME280;55834;50.870;4.606;2023-03-26T06:54:12;99407.13;;;8.51;55.25
68822;BME280;55834;50.870;4.606;2023-03-26T06:56:38;99402.09;;;8.45;55.76
68822;BME280;55834;50.870;4.606;2023-03-26T06:59:03;99407.56;;;8.41;55.74
68822;BME280;55834;50.870;4.606;2023-03-26T07:01:29;99398.47;;;8.48;56.24
68822;BME280;55834;50.870;4.606;2023-03-26T07:03:54;99397.09;;;8.39;55.53
68822;BME280;55834;50.870;4.606;2023-03-26T07:06:20;99394.31;;;8.42;56.38
68822;BME280;55834;50.870;4.606;2023-03-26T07:08:45;99393.34;;;8.45;55.46
68822;BME280;55834;50.870;4.606;2023-03-26T07:11:10;99383.59;;;8.48;55.53
68822;BME280;55834;50.870;4.606;2023-03-26T07:13:36;99381.31;;;8.39;55.63
68822;BME280;55834;50.870;4.606;2023-03-26T07:16:02;99380.19;;;8.45;55.64
68822;BME280;55834;50.870;4.606;2023-03-26T07:18:27;99376.16;;;8.36;55.76
68822;BME280;55834;50.870;4.606;2023-03-26T07:20:53;99376.16;;;8.36;56.17
68822;BME280;55834;50.870;4.606;2023-03-26T07:23:19;99361.97;;;8.20;54.93
68822;BME280;55834;50.870;4.606;2023-03-26T07:25:46;99354.91;;;8.20;55.65
68822;BME280;55834;50.870;4.606;2023-03-26T07:28:21;99348.72;;;8.21;55.90
68822;BME280;55834;50.870;4.606;2023-03-26T07:30:58;99339.47;;;8.33;55.76
68822;BME280;55834;50.870;4.606;2023-03-26T07:33:30;99336.97;;;8.30;54.98
68822;BME280;55834;50.870;4.606;2023-03-26T07:36:19;99331.81;;;8.28;54.79
68822;BME280;55834;50.870;4.606;2023-03-26T07:41:48;99330.63;;;8.13;55.19
68822;BME280;55834;50.870;4.606;2023-03-26T07:44:42;99325.16;;;8.20;56.31
68822;BME280;55834;50.870;4.606;2023-03-26T07:47:21;99315.47;;;8.20;55.75
68822;BME280;55834;50.870;4.606;2023-03-26T07:49:53;99327.56;;;8.02;56.03
68822;BME280;55834;50.870;4.606;2023-03-26T07:52:20;99318.94;;;7.99;55.75
68822;BME280;55834;50.870;4.606;2023-03-26T07:54:45;99309.13;;;7.82;56.60
68822;BME280;55834;50.870;4.606;2023-03-26T08:00:25;99303.75;;;8.07;56.10
68822;BME280;55834;50.870;4.606;2023-03-26T08:03:07;99301.16;;;7.83;56.13
68822;BME280;55834;50.870;4.606;2023-03-26T08:05:49;99301.25;;;7.82;57.81
68822;BME280;55834;50.870;4.606;2023-03-26T08:10:54;99300.94;;;7.67;58.73
68822;BME280;55834;50.870;4.606;2023-03-26T08:22:21;99295.13;;;7.12;57.71
68822;BME280;55834;50.870;4.606;2023-03-26T08:25:25;99290.06;;;7.31;57.73
68822;BME280;55834;50.870;4.606;2023-03-26T08:30:41;99291.34;;;6.21;61.66
68822;BME280;55834;50.870;4.606;2023-03-26T08:35:35;99281.66;;;6.49;61.09
68822;BME280;55834;50.870;4.606;2023-03-26T08:38:06;99278.97;;;7.01;61.88
68822;BME280;55834;50.870;4.606;2023-03-26T08:51:49;99285.66;;;6.85;60.87
68822;BME280;55834;50.870;4.606;2023-03-26T08:57:30;99295.75;;;6.45;61.15
68822;BME280;55834;50.870;4.606;2023-03-26T09:08:10;99297.31;;;5.43;64.85
68822;BME280;55834;50.870;4.606;2023-03-26T09:10:58;99294.81;;;5.10;66.25
68822;BME280;55834;50.870;4.606;2023-03-26T09:21:54;99301.63;;;6.00;64.91
68822;BME280;55834;50.870;4.606;2023-03-26T09:24:47;99301.13;;;5.61;65.92
68822;BME280;55834;50.870;4.606;2023-03-26T09:32:47;99303.50;;;5.40;66.98
68822;BME280;55834;50.870;4.606;2023-03-26T09:36:03;99311.19;;;5.15;66.91
68822;BME280;55834;50.870;4.606;2023-03-26T09:38:35;99318.72;;;5.28;68.37
68822;BME280;55834;50.870;4.606;2023-03-26T09:58:51;99323.00;;;5.30;67.31
68822;BME280;55834;50.870;4.606;2023-03-26T10:07:45;99339.91;;;5.76;65.41
68822;BME280;55834;50.870;4.606;2023-03-26T10:13:20;99354.22;;;5.04;65.88
68822;BME280;55834;50.870;4.606;2023-03-26T10:19:15;99345.66;;;5.31;67.03
68822;BME280;55834;50.870;4.606;2023-03-26T10:33:34;99367.16;;;4.77;70.40
68822;BME280;55834;50.870;4.606;2023-03-26T10:41:50;99377.72;;;5.07;69.30
68822;BME280;55834;50.870;4.606;2023-03-26T10:52:40;99382.75;;;5.46;67.63
68822;BME280;55834;50.870;4.606;2023-03-26T10:57:53;99391.31;;;5.80;65.23
68822;BME280;55834;50.870;4.606;2023-03-26T11:00:21;99386.66;;;5.31;68.68
68822;BME280;55834;50.870;4.606;2023-03-26T11:05:39;99395.06;;;5.42;68.06
68822;BME280;55834;50.870;4.606;2023-03-26T11:08:20;99405.91;;;4.95;69.36
68822;BME280;55834;50.870;4.606;2023-03-26T11:13:57;99419.50;;;4.40;72.56
68822;BME280;55834;50.870;4.606;2023-03-26T11:19:17;99426.41;;;3.66;73.49
68822;BME280;55834;50.870;4.606;2023-03-26T11:30:45;99436.69;;;4.50;70.61
68822;BME280;55834;50.870;4.606;2023-03-26T11:33:49;99440.03;;;4.91;69.82
68822;BME280;55834;50.870;4.606;2023-03-26T11:36:20;99444.16;;;4.99;69.67
68822;BME280;55834;50.870;4.606;2023-03-26T11:38:49;99451.31;;;4.93;68.87
68822;BME280;55834;50.870;4.606;2023-03-26T11:41:19;99452.09;;;4.25;71.78
68822;BME280;55834;50.870;4.606;2023-03-26T11:43:49;99447.56;;;4.31;73.32
68822;BME280;55834;50.870;4.606;2023-03-26T11:46:17;99459.91;;;4.25;71.68
68822;BME280;55834;50.870;4.606;2023-03-26T11:49:08;99459.84;;;4.99;72.33
68822;BME280;55834;50.870;4.606;2023-03-26T11:51:36;99450.75;;;5.47;68.95
68822;BME280;55834;50.870;4.606;2023-03-26T11:54:04;99463.13;;;5.09;67.90
68822;BME280;55834;50.870;4.606;2023-03-26T11:56:36;99456.16;;;5.72;66.89
68822;BME280;55834;50.870;4.606;2023-03-26T11:59:13;99470.91;;;4.76;70.48
68822;BME280;55834;50.870;4.606;2023-03-26T12:04:37;99478.19;;;4.64;70.73
68822;BME280;55834;50.870;4.606;2023-03-26T12:09:58;99484.31;;;4.98;70.27
68822;BME280;55834;50.870;4.606;2023-03-26T12:12:38;99490.41;;;4.97;70.67
68822;BME280;55834;50.870;4.606;2023-03-26T12:15:15;99483.41;;;4.98;71.82
68822;BME280;55834;50.870;4.606;2023-03-26T12:17:44;99484.84;;;5.46;70.08
68822;BME280;55834;50.870;4.606;2023-03-26T12:22:52;99506.44;;;4.48;71.12
68822;BME280;55834;50.870;4.606;2023-03-26T12:25:25;99494.13;;;5.57;69.74
68822;BME280;55834;50.870;4.606;2023-03-26T12:27:58;99492.44;;;4.86;70.62
68822;BME280;55834;50.870;4.606;2023-03-26T12:30:32;99503.59;;;4.57;72.62
68822;BME280;55834;50.870;4.606;2023-03-26T12:33:27;99515.34;;;4.76;71.73
68822;BME280;55834;50.870;4.606;2023-03-26T12:35:55;99516.03;;;5.20;71.34
68822;BME280;55834;50.870;4.606;2023-03-26T12:40:48;99519.75;;;5.12;70.38
68822;BME280;55834;50.870;4.606;2023-03-26T12:43:30;99520.63;;;5.76;69.01
68822;BME280;55834;50.870;4.606;2023-03-26T12:46:00;99516.84;;;5.88;67.82
68822;BME280;55834;50.870;4.606;2023-03-26T12:48:28;99515.56;;;6.01;66.77
68822;BME280;55834;50.870;4.606;2023-03-26T12:51:06;99520.56;;;5.79;68.12
68822;BME280;55834;50.870;4.606;2023-03-26T12:56:11;99532.66;;;5.18;69.17
68822;BME280;55834;50.870;4.606;2023-03-26T12:59:17;99521.69;;;5.71;69.04
68822;BME280;55834;50.870;4.606;2023-03-26T13:02:04;99534.72;;;4.69;71.96
68822;BME280;55834;50.870;4.606;2023-03-26T13:05:01;99532.13;;;5.39;71.45
68822;BME280;55834;50.870;4.606;2023-03-26T13:07:52;99548.31;;;4.45;72.69
68822;BME280;55834;50.870;4.606;2023-03-26T13:10:51;99546.25;;;4.20;73.61
68822;BME280;55834;50.870;4.606;2023-03-26T13:19:59;99546.91;;;6.34;68.18
68822;BME280;55834;50.870;4.606;2023-03-26T13:33:30;99572.25;;;5.04;72.47
68822;BME280;55834;50.870;4.606;2023-03-26T13:36:12;99569.63;;;6.05;67.34
68822;BME280;55834;50.870;4.606;2023-03-26T13:39:02;99585.75;;;5.23;67.25
68822;BME280;55834;50.870;4.606;2023-03-26T13:41:38;99583.97;;;4.86;66.77
68822;BME280;55834;50.870;4.606;2023-03-26T13:47:15;99596.56;;;4.69;69.29
68822;BME280;55834;50.870;4.606;2023-03-26T13:49:47;99596.34;;;4.41;71.23
68822;BME280;55834;50.870;4.606;2023-03-26T13:52:27;99595.53;;;5.83;66.86
68822;BME280;55834;50.870;4.606;2023-03-26T13:55:24;99609.56;;;5.48;67.31
68822;BME280;55834;50.870;4.606;2023-03-26T14:03:19;99620.00;;;4.33;72.49
68822;BME280;55834;50.870;4.606;2023-03-26T14:05:50;99616.44;;;4.78;71.91
68822;BME280;55834;50.870;4.606;2023-03-26T14:08:31;99626.31;;;4.63;69.86
68822;BME280;55834;50.870;4.606;2023-03-26T14:11:13;99630.38;;;5.17;69.48
68822;BME280;55834;50.870;4.606;2023-03-26T14:13:42;99629.09;;;4.15;72.54
68822;BME280;55834;50.870;4.606;2023-03-26T14:16:20;99623.50;;;4.74;72.10
68822;BME280;55834;50.870;4.606;2023-03-26T14:22:01;99636.38;;;6.53;66.64
68822;BME280;55834;50.870;4.606;2023-03-26T14:24:50;99652.91;;;5.60;68.12
68822;BME280;55834;50.870;4.606;2023-03-26T14:30:27;99646.91;;;5.89;66.62
68822;BME280;55834;50.870;4.606;2023-03-26T14:33:34;99658.06;;;5.96;67.05
68822;BME280;55834;50.870;4.606;2023-03-26T14:41:52;99674.59;;;6.30;65.58
68822;BME280;55834;50.870;4.606;2023-03-26T14:47:12;99678.47;;;5.11;69.17
68822;BME280;55834;50.870;4.606;2023-03-26T14:49:51;99682.97;;;5.05;68.40
68822;BME280;55834;50.870;4.606;2023-03-26T14:52:26;99690.84;;;6.12;65.68
68822;BME280;55834;50.870;4.606;2023-03-26T14:54:56;99699.38;;;6.19;66.11
68822;BME280;55834;50.870;4.606;2023-03-26T15:13:52;99727.25;;;6.23;65.67
68822;BME280;55834;50.870;4.606;2023-03-26T15:35:40;99765.38;;;7.28;61.03
68822;BME280;55834;50.870;4.606;2023-03-26T15:53:58;99791.13;;;7.45;61.78
68822;BME280;55834;50.870;4.606;2023-03-26T16:02:19;99805.63;;;7.29;62.89
68822;BME280;55834;50.870;4.606;2023-03-26T16:10:37;99846.56;;;3.72;76.09
68822;BME280;55834;50.870;4.606;2023-03-26T16:29:24;99887.13;;;3.96;76.30
68822;BME280;55834;50.870;4.606;2023-03-26T16:32:26;99890.16;;;4.77;72.78
68822;BME280;55834;50.870;4.606;2023-03-26T16:51:01;99939.09;;;4.70;69.49
68822;BME280;55834;50.870;4.606;2023-03-26T16:56:29;99950.19;;;5.76;66.72
68822;BME280;55834;50.870;4.606;2023-03-26T16:59:07;99957.09;;;6.21;64.81
68822;BME280;55834;50.870;4.606;2023-03-26T17:01:46;99968.94;;;4.57;69.39
68822;BME280;55834;50.870;4.606;2023-03-26T17:04:17;99964.84;;;4.93;69.62
68822;BME280;55834;50.870;4.606;2023-03-26T17:12:40;99990.16;;;4.93;69.04
68822;BME280;55834;50.870;4.606;2023-03-26T17:20:36;100020.00;;;3.51;73.07
68822;BME280;55834;50.870;4.606;2023-03-26T17:26:27;100032.09;;;4.28;71.78
68822;BME280;55834;50.870;4.606;2023-03-26T17:31:50;100044.88;;;3.81;71.65
68822;BME280;55834;50.870;4.606;2023-03-26T17:34:39;100057.50;;;4.17;69.37
68822;BME280;55834;50.870;4.606;2023-03-26T17:45:21;100080.41;;;4.63;66.90
68822;BME280;55834;50.870;4.606;2023-03-26T17:47:52;100079.13;;;4.90;64.97
68822;BME280;55834;50.870;4.606;2023-03-26T17:50:47;100074.25;;;4.67;67.36
68822;BME280;55834;50.870;4.606;2023-03-26T17:53:23;100080.78;;;4.35;65.77
68822;BME280;55834;50.870;4.606;2023-03-26T17:55:51;100082.69;;;5.40;63.69
68822;BME280;55834;50.870;4.606;2023-03-26T17:58:21;100105.09;;;5.01;64.11
68822;BME280;55834;50.870;4.606;2023-03-26T18:00:49;100106.53;;;3.93;64.62
68822;BME280;55834;50.870;4.606;2023-03-26T18:03:23;100112.88;;;4.45;64.26
68822;BME280;55834;50.870;4.606;2023-03-26T18:06:03;100118.56;;;4.76;62.36
68822;BME280;55834;50.870;4.606;2023-03-26T18:16:50;100136.03;;;4.74;60.60
68822;BME280;55834;50.870;4.606;2023-03-26T18:19:18;100145.78;;;3.89;62.99
68822;BME280;55834;50.870;4.606;2023-03-26T18:21:48;100154.69;;;4.48;59.80
68822;BME280;55834;50.870;4.606;2023-03-26T18:24:20;100165.47;;;4.19;60.67
68822;BME280;55834;50.870;4.606;2023-03-26T18:27:00;100151.81;;;3.95;60.21
68822;BME280;55834;50.870;4.606;2023-03-26T18:29:28;100175.09;;;3.20;61.84
68822;BME280;55834;50.870;4.606;2023-03-26T18:31:59;100181.50;;;2.57;64.00
68822;BME280;55834;50.870;4.606;2023-03-26T18:34:29;100178.66;;;2.99;62.27
68822;BME280;55834;50.870;4.606;2023-03-26T18:39:27;100204.88;;;2.72;62.89
68822;BME280;55834;50.870;4.606;2023-03-26T18:41:52;100203.16;;;2.68;62.13
68822;BME280;55834;50.870;4.606;2023-03-26T18:44:18;100208.09;;;3.17;62.60
68822;BME280;55834;50.870;4.606;2023-03-26T18:46:44;100220.13;;;3.45;60.94
68822;BME280;55834;50.870;4.606;2023-03-26T18:49:14;100223.44;;;3.67;60.39
68822;BME280;55834;50.870;4.606;2023-03-26T18:51:41;100230.75;;;3.20;61.70
68822;BME280;55834;50.870;4.606;2023-03-26T18:54:13;100237.06;;;2.64;63.92
68822;BME280;55834;50.870;4.606;2023-03-26T18:56:42;100244.06;;;2.56;64.55
68822;BME280;55834;50.870;4.606;2023-03-26T18:59:30;100248.38;;;2.61;64.73
68822;BME280;55834;50.870;4.606;2023-03-26T19:02:01;100256.69;;;3.42;61.98
68822;BME280;55834;50.870;4.606;2023-03-26T19:04:30;100261.38;;;2.67;63.26
68822;BME280;55834;50.870;4.606;2023-03-26T19:06:58;100283.16;;;2.45;63.85